sensor_id;sensor_type;location;lat;lon;timestamp;pressure;altitude;pressure_sealevel;temperature;humidity
74856;BME280;63407;53.018;8.690;2022-09-09T12:28:09;100819.16;;;19.92;60.59
74856;BME280;63407;53.018;8.690;2022-09-09T12:33:44;100809.81;;;19.88;60.91
74856;BME280;63407;53.018;8.690;2022-09-09T12:36:18;100813.13;;;19.90;60.84
74856;BME280;63407;53.018;8.690;2022-09-09T12:38:46;100817.50;;;19.91;60.81
74856;BME280;63407;53.018;8.690;2022-09-09T12:41:26;100816.88;;;19.89;60.70
74856;BME280;63407;53.018;8.690;2022-09-09T12:44:06;100813.13;;;19.90;60.78
74856;BME280;63407;53.018;8.690;2022-09-09T12:46:36;100811.31;;;20.02;60.53
74856;BME280;63407;53.018;8.690;2022-09-09T12:49:03;100809.44;;;19.84;61.06
74856;BME280;63407;53.018;8.690;2022-09-09T12:51:31;100798.16;;;19.81;61.03
74856;BME280;63407;53.018;8.690;2022-09-09T12:53:58;100804.91;;;19.78;61.10
74856;BME280;63407;53.018;8.690;2022-09-09T12:56:30;100810.56;;;19.76;61.08
74856;BME280;63407;53.018;8.690;2022-09-09T12:58:57;100807.47;;;19.73;61.33
74856;BME280;63407;53.018;8.690;2022-09-09T13:01:32;100812.28;;;19.71;61.29
74856;BME280;63407;53.018;8.690;2022-09-09T13:03:58;100816.91;;;19.70;61.48
74856;BME280;63407;53.018;8.690;2022-09-09T13:06:32;100815.22;;;19.69;61.45
74856;BME280;63407;53.018;8.690;2022-09-09T13:08:59;100812.06;;;19.72;61.13
74856;BME280;63407;53.018;8.690;2022-09-09T13:11:34;100823.34;;;19.69;61.22
74856;BME280;63407;53.018;8.690;2022-09-09T13:14:01;100808.75;;;19.70;61.35
74856;BME280;63407;53.018;8.690;2022-09-09T13:16:32;100820.06;;;19.67;61.47
74856;BME280;63407;53.018;8.690;2022-09-09T13:19:07;100810.25;;;19.66;61.69
74856;BME280;63407;53.018;8.690;2022-09-09T13:21:38;100808.38;;;19.67;61.45
74856;BME280;63407;53.018;8.690;2022-09-09T13:27:00;100826.38;;;19.61;61.61
74856;BME280;63407;53.018;8.690;2022-09-09T13:29:27;100821.31;;;19.65;61.32
74856;BME280;63407;53.018;8.690;2022-09-09T13:31:53;100805.94;;;19.59;61.80
74856;BME280;63407;53.018;8.690;2022-09-09T13:34:34;100812.19;;;19.59;61.45
74856;BME280;63407;53.018;8.690;2022-09-09T13:37:09;100819.25;;;19.60;61.70
74856;BME280;63407;53.018;8.690;2022-09-09T13:39:51;100817.59;;;19.59;61.58
74856;BME280;63407;53.018;8.690;2022-09-09T13:42:26;100817.59;;;19.59;61.41
74856;BME280;63407;53.018;8.690;2022-09-09T13:44:52;100832.25;;;19.58;61.54
74856;BME280;63407;53.018;8.690;2022-09-09T13:47:31;100838.09;;;19.55;61.61
74856;BME280;63407;53.018;8.690;2022-09-09T13:49:57;100841.88;;;19.54;61.63
74856;BME280;63407;53.018;8.690;2022-09-09T13:52:23;100832.66;;;19.55;61.54
74856;BME280;63407;53.018;8.690;2022-09-09T13:54:50;100840.22;;;19.53;61.65
74856;BME280;63407;53.018;8.690;2022-09-09T13:59:44;100840.69;;;19.50;61.68
74856;BME280;63407;53.018;8.690;2022-09-09T14:02:10;100856.97;;;19.50;61.56
74856;BME280;63407;53.018;8.690;2022-09-09T14:04:35;100854.84;;;19.52;61.62
74856;BME280;63407;53.018;8.690;2022-09-09T14:07:01;100854.00;;;19.51;61.73
74856;BME280;63407;53.018;8.690;2022-09-09T14:09:27;100839.63;;;19.51;61.60
74856;BME280;63407;53.018;8.690;2022-09-09T14:11:52;100836.91;;;19.51;61.53
74856;BME280;63407;53.018;8.690;2022-09-09T14:14:20;100830.19;;;19.53;61.38
74856;BME280;63407;53.018;8.690;2022-09-09T14:16:45;100833.97;;;19.52;61.48
74856;BME280;63407;53.018;8.690;2022-09-09T14:19:10;100834.34;;;19.56;61.35
74856;BME280;63407;53.018;8.690;2022-09-09T14:21:36;100834.78;;;19.53;61.44
74856;BME280;63407;53.018;8.690;2022-09-09T14:24:01;100833.13;;;19.52;61.36
74856;BME280;63407;53.018;8.690;2022-09-09T14:26:27;100823.53;;;19.49;61.49
74856;BME280;63407;53.018;8.690;2022-09-09T14:28:54;100805.38;;;19.50;61.60
74856;BME280;63407;53.018;8.690;2022-09-09T14:31:19;100808.09;;;19.50;61.59
74856;BME280;63407;53.018;8.690;2022-09-09T14:33:45;100798.75;;;19.64;61.36
74856;BME280;63407;53.018;8.690;2022-09-09T14:36:10;100801.69;;;19.63;61.58
74856;BME280;63407;53.018;8.690;2022-09-09T14:38:37;100801.69;;;19.63;61.83
74856;BME280;63407;53.018;8.690;2022-09-09T14:41:10;100817.16;;;19.62;61.75
74856;BME280;63407;53.018;8.690;2022-09-09T14:43:37;100804.91;;;19.78;61.28
74856;BME280;63407;53.018;8.690;2022-09-09T14:46:07;100806.31;;;19.81;60.97
74856;BME280;63407;53.018;8.690;2022-09-09T14:48:34;100803.03;;;19.79;61.51
74856;BME280;63407;53.018;8.690;2022-09-09T14:51:17;100805.09;;;19.95;60.81
74856;BME280;63407;53.018;8.690;2022-09-09T14:53:43;100803.81;;;19.97;60.79
74856;BME280;63407;53.018;8.690;2022-09-09T14:56:12;100801.03;;;19.86;61.47
74856;BME280;63407;53.018;8.690;2022-09-09T14:58:38;100804.81;;;19.85;61.59
74856;BME280;63407;53.018;8.690;2022-09-09T15:01:05;100802.56;;;19.82;61.58
74856;BME280;63407;53.018;8.690;2022-09-09T15:03:31;100798.63;;;19.77;61.55
74856;BME280;63407;53.018;8.690;2022-09-09T15:05:56;100790.34;;;19.72;62.06
74856;BME280;63407;53.018;8.690;2022-09-09T15:08:24;100790.09;;;17.45;80.80
74856;BME280;63407;53.018;8.690;2022-09-09T15:10:49;100791.06;;;16.45;88.21
74856;BME280;63407;53.018;8.690;2022-09-09T15:13:15;100792.13;;;16.44;88.99
74856;BME280;63407;53.018;8.690;2022-09-09T15:15:42;100790.88;;;16.46;88.98
74856;BME280;63407;53.018;8.690;2022-09-09T15:18:07;100795.00;;;16.42;89.33
74856;BME280;63407;53.018;8.690;2022-09-09T15:20:32;100797.94;;;16.47;88.70
74856;BME280;63407;53.018;8.690;2022-09-09T15:22:58;100794.41;;;16.40;88.97
74856;BME280;63407;53.018;8.690;2022-09-09T15:25:23;100786.31;;;16.53;88.41
74856;BME280;63407;53.018;8.690;2022-09-09T15:27:48;100793.16;;;16.49;88.15
74856;BME280;63407;53.018;8.690;2022-09-09T15:30:14;100783.81;;;16.45;87.91
74856;BME280;63407;53.018;8.690;2022-09-09T15:32:40;100777.16;;;16.48;88.71
74856;BME280;63407;53.018;8.690;2022-09-09T15:35:05;100777.38;;;16.46;88.36
74856;BME280;63407;53.018;8.690;2022-09-09T15:37:31;100775.91;;;16.50;88.52
74856;BME280;63407;53.018;8.690;2022-09-09T15:41:47;100773.00;;;16.45;88.64
74856;BME280;63407;53.018;8.690;2022-09-09T15:44:14;100772.59;;;16.48;89.17
74856;BME280;63407;53.018;8.690;2022-09-09T16:13:12;100773.09;;;20.15;62.03
74856;BME280;63407;53.018;8.690;2022-09-09T16:15:39;100774.00;;;20.09;62.06
74856;BME280;63407;53.018;8.690;2022-09-09T16:18:04;100785.34;;;20.36;61.05
74856;BME280;63407;53.018;8.690;2022-09-09T16:20:30;100783.50;;;20.18;61.69
74856;BME280;63407;53.018;8.690;2022-09-09T16:22:56;100775.66;;;20.10;62.05
74856;BME280;63407;53.018;8.690;2022-09-09T16:25:22;100775.38;;;20.00;62.06
74856;BME280;63407;53.018;8.690;2022-09-09T16:27:48;100777.06;;;20.01;62.12
74856;BME280;63407;53.018;8.690;2022-09-09T16:30:13;100778.03;;;20.07;61.69
74856;BME280;63407;53.018;8.690;2022-09-09T16:32:39;100783.31;;;20.02;62.04
74856;BME280;63407;53.018;8.690;2022-09-09T16:35:05;100791.66;;;20.00;62.01
74856;BME280;63407;53.018;8.690;2022-09-09T16:37:31;100795.47;;;19.99;62.07
74856;BME280;63407;53.018;8.690;2022-09-09T16:39:59;100808.44;;;19.97;61.85
74856;BME280;63407;53.018;8.690;2022-09-09T16:42:25;100814.31;;;19.94;61.89
74856;BME280;63407;53.018;8.690;2022-09-09T16:44:50;100812.66;;;19.93;61.90
74856;BME280;63407;53.018;8.690;2022-09-09T16:47:16;100812.66;;;19.93;61.96
74856;BME280;63407;53.018;8.690;2022-09-09T16:49:43;100832.72;;;19.92;61.93
74856;BME280;63407;53.018;8.690;2022-09-09T16:52:09;100850.91;;;19.91;61.96
74856;BME280;63407;53.018;8.690;2022-09-09T16:54:34;100893.75;;;19.89;61.91
74856;BME280;63407;53.018;8.690;2022-09-09T16:57:00;100896.72;;;19.88;62.01
74856;BME280;63407;53.018;8.690;2022-09-09T16:59:26;100886.69;;;19.88;62.05
74856;BME280;63407;53.018;8.690;2022-09-09T17:01:51;100864.13;;;19.88;62.23
74856;BME280;63407;53.018;8.690;2022-09-09T17:04:22;100867.06;;;19.86;61.97
74856;BME280;63407;53.018;8.690;2022-09-09T17:06:52;100882.53;;;19.86;61.94
74856;BME280;63407;53.018;8.690;2022-09-09T17:09:19;100888.41;;;19.83;62.15
74856;BME280;63407;53.018;8.690;2022-09-09T17:11:46;100886.31;;;19.85;62.00
74856;BME280;63407;53.018;8.690;2022-09-09T17:14:16;100893.38;;;19.86;62.04
74856;BME280;63407;53.018;8.690;2022-09-09T17:16:42;100893.38;;;19.86;62.00
74856;BME280;63407;53.018;8.690;2022-09-09T17:19:10;100891.75;;;19.85;61.97
74856;BME280;63407;53.018;8.690;2022-09-09T17:21:36;100891.75;;;19.85;61.90
74856;BME280;63407;53.018;8.690;2022-09-09T17:24:02;100893.63;;;19.84;61.84
74856;BME280;63407;53.018;8.690;2022-09-09T17:26:31;100884.66;;;19.84;61.96
74856;BME280;63407;53.018;8.690;2022-09-09T17:29:00;100890.09;;;19.84;62.01
74856;BME280;63407;53.018;8.690;2022-09-09T17:31:28;100892.03;;;19.95;61.52
74856;BME280;63407;53.018;8.690;2022-09-09T17:33:55;100885.94;;;19.99;61.39
74856;BME280;63407;53.018;8.690;2022-09-09T17:40:50;100895.38;;;20.34;60.65
74856;BME280;63407;53.018;8.690;2022-09-09T17:43:15;100910.47;;;20.66;58.86
74856;BME280;63407;53.018;8.690;2022-09-09T17:45:41;100900.78;;;20.52;59.71
74856;BME280;63407;53.018;8.690;2022-09-09T17:48:07;100902.91;;;20.32;60.23
74856;BME280;63407;53.018;8.690;2022-09-09T17:50:32;100911.38;;;19.87;62.80
74856;BME280;63407;53.018;8.690;2022-09-09T17:52:59;100900.34;;;20.00;61.76
74856;BME280;63407;53.018;8.690;2022-09-09T17:55:24;100896.59;;;20.01;61.34
74856;BME280;63407;53.018;8.690;2022-09-09T17:57:50;100896.19;;;19.97;61.30
74856;BME280;63407;53.018;8.690;2022-09-09T18:00:16;100895.38;;;19.97;61.13
74856;BME280;63407;53.018;8.690;2022-09-09T18:02:42;100891.44;;;19.93;61.33
74856;BME280;63407;53.018;8.690;2022-09-09T18:05:08;100892.50;;;19.92;61.29
74856;BME280;63407;53.018;8.690;2022-09-09T18:07:34;100883.75;;;19.90;61.44
74856;BME280;63407;53.018;8.690;2022-09-09T18:09:59;100882.53;;;19.86;61.38
74856;BME280;63407;53.018;8.690;2022-09-09T18:12:25;100889.84;;;19.85;61.28
74856;BME280;63407;53.018;8.690;2022-09-09T18:14:51;100878.38;;;19.83;61.52
74856;BME280;63407;53.018;8.690;2022-09-09T18:17:18;100875.91;;;19.82;61.40
74856;BME280;63407;53.018;8.690;2022-09-09T18:19:43;100886.75;;;19.82;61.35
74856;BME280;63407;53.018;8.690;2022-09-09T18:22:09;100878.00;;;19.80;61.41
74856;BME280;63407;53.018;8.690;2022-09-09T18:24:34;100880.09;;;19.77;61.38
74856;BME280;63407;53.018;8.690;2022-09-09T18:27:00;100874.09;;;19.75;61.56
74856;BME280;63407;53.018;8.690;2022-09-09T18:29:26;100882.22;;;19.75;61.66
74856;BME280;63407;53.018;8.690;2022-09-09T18:31:53;100880.56;;;19.74;61.58
74856;BME280;63407;53.018;8.690;2022-09-09T18:34:20;100884.78;;;19.70;61.73
74856;BME280;63407;53.018;8.690;2022-09-09T18:36:49;100879.34;;;19.70;61.86
74856;BME280;63407;53.018;8.690;2022-09-09T18:39:19;100883.09;;;19.69;61.80
74856;BME280;63407;53.018;8.690;2022-09-09T18:41:48;100875.19;;;19.68;61.76
74856;BME280;63407;53.018;8.690;2022-09-09T18:44:20;100874.38;;;19.67;61.83
74856;BME280;63407;53.018;8.690;2022-09-09T18:46:46;100878.13;;;19.66;61.88
74856;BME280;63407;53.018;8.690;2022-09-09T18:49:13;100876.69;;;19.64;61.78
74856;BME280;63407;53.018;8.690;2022-09-09T18:51:41;100874.78;;;19.64;61.93
74856;BME280;63407;53.018;8.690;2022-09-09T18:54:12;100876.88;;;19.62;62.09
74856;BME280;63407;53.018;8.690;2022-09-09T18:56:38;100885.66;;;19.64;61.93
74856;BME280;63407;53.018;8.690;2022-09-09T18:59:06;100880.88;;;19.60;62.04
74856;BME280;63407;53.018;8.690;2022-09-09T19:01:32;100879.00;;;19.60;62.11
74856;BME280;63407;53.018;8.690;2022-09-09T19:04:00;100887.38;;;19.59;62.06
74856;BME280;63407;53.018;8.690;2022-09-09T19:06:28;100881.13;;;19.58;62.09
74856;BME280;63407;53.018;8.690;2022-09-09T19:08:55;100884.03;;;19.57;62.17
74856;BME280;63407;53.018;8.690;2022-09-09T19:11:24;100889.69;;;19.55;62.13
74856;BME280;63407;53.018;8.690;2022-09-09T19:13:54;100894.53;;;19.53;62.23
74856;BME280;63407;53.018;8.690;2022-09-09T19:16:22;100894.53;;;19.53;62.13
74856;BME280;63407;53.018;8.690;2022-09-09T19:18:49;100892.03;;;19.51;62.33
74856;BME280;63407;53.018;8.690;2022-09-09T19:21:21;100907.47;;;19.51;62.49
74856;BME280;63407;53.018;8.690;2022-09-09T19:23:55;100899.53;;;19.49;62.33
74856;BME280;63407;53.018;8.690;2022-09-09T19:26:21;100901.44;;;19.49;62.29
74856;BME280;63407;53.018;8.690;2022-09-09T19:28:47;100912.53;;;19.47;62.54
74856;BME280;63407;53.018;8.690;2022-09-09T19:31:15;100907.09;;;19.47;62.56
74856;BME280;63407;53.018;8.690;2022-09-09T19:33:43;100913.34;;;19.48;62.22
74856;BME280;63407;53.018;8.690;2022-09-09T19:36:14;100913.81;;;19.45;62.70
74856;BME280;63407;53.018;8.690;2022-09-09T19:38:41;100915.44;;;19.46;62.45
74856;BME280;63407;53.018;8.690;2022-09-09T19:41:10;100919.22;;;19.45;62.61
74856;BME280;63407;53.018;8.690;2022-09-09T19:43:36;100915.91;;;19.43;62.34
74856;BME280;63407;53.018;8.690;2022-09-09T19:46:04;100914.25;;;19.42;62.49
74856;BME280;63407;53.018;8.690;2022-09-09T19:48:32;100927.81;;;19.42;62.40
74856;BME280;63407;53.018;8.690;2022-09-09T19:51:09;100924.28;;;19.41;62.45
74856;BME280;63407;53.018;8.690;2022-09-09T19:53:37;100907.13;;;19.41;62.46
74856;BME280;63407;53.018;8.690;2022-09-09T19:56:04;100921.78;;;19.40;62.46
74856;BME280;63407;53.018;8.690;2022-09-09T19:58:30;100921.78;;;19.40;62.43
74856;BME280;63407;53.018;8.690;2022-09-09T20:01:12;100917.41;;;19.39;62.58
74856;BME280;63407;53.018;8.690;2022-09-09T20:03:39;100925.56;;;19.39;62.56
74856;BME280;63407;53.018;8.690;2022-09-09T20:06:10;100927.19;;;19.40;62.66
74856;BME280;63407;53.018;8.690;2022-09-09T20:08:37;100926.00;;;19.36;62.59
74856;BME280;63407;53.018;8.690;2022-09-09T20:11:05;100932.91;;;19.31;62.87
74856;BME280;63407;53.018;8.690;2022-09-09T20:13:33;100930.19;;;19.31;62.87
74856;BME280;63407;53.018;8.690;2022-09-09T20:16:02;100926.84;;;19.29;62.85
74856;BME280;63407;53.018;8.690;2022-09-09T20:18:33;100930.63;;;19.28;63.08
74856;BME280;63407;53.018;8.690;2022-09-09T20:21:01;100927.09;;;19.28;63.08
74856;BME280;63407;53.018;8.690;2022-09-09T20:23:27;100929.78;;;19.28;63.13
74856;BME280;63407;53.018;8.690;2022-09-09T20:25:54;100935.44;;;19.26;63.21
74856;BME280;63407;53.018;8.690;2022-09-09T20:28:19;100928.34;;;19.25;63.41
74856;BME280;63407;53.018;8.690;2022-09-09T20:30:46;100930.44;;;19.23;63.37
74856;BME280;63407;53.018;8.690;2022-09-09T20:33:13;100929.41;;;19.24;63.34
74856;BME280;63407;53.018;8.690;2022-09-09T20:35:39;100929.84;;;19.21;63.34
74856;BME280;63407;53.018;8.690;2022-09-09T20:38:05;100923.56;;;19.21;63.38
74856;BME280;63407;53.018;8.690;2022-09-09T20:40:35;100929.00;;;19.21;63.38
74856;BME280;63407;53.018;8.690;2022-09-09T20:43:02;100924.88;;;19.18;63.54
74856;BME280;63407;53.018;8.690;2022-09-09T20:45:35;100927.59;;;19.18;63.44
74856;BME280;63407;53.018;8.690;2022-09-09T20:48:05;100926.97;;;19.16;63.42
74856;BME280;63407;53.018;8.690;2022-09-09T20:50:36;100933.84;;;19.19;63.52
74856;BME280;63407;53.018;8.690;2022-09-09T20:53:03;100925.28;;;19.15;63.62
74856;BME280;63407;53.018;8.690;2022-09-09T20:55:30;100939.91;;;19.14;63.44
74856;BME280;63407;53.018;8.690;2022-09-09T20:57:56;100934.72;;;19.13;63.31
